Time;durP1;ratioP1;P1;durP2;ratioP2;P2;SDS_P1;SDS_P2;PMS_P1;PMS_P2;Temp;Humidity;BMP_temperature;BMP_pressure;BME280_temperature;BME280_humidity;BME280_pressure;Samples;Min_cycle;Max_cycle;Signal;HPM_P1;HPM_P2
2022/05/19 00:00:36;;;;;;;0.95;0.20;;;;;;;25.00;36.56;101585.50;5060077;28;20024;-46
2022/05/19 00:03:02;;;;;;;0.52;0.20;;;;;;;24.99;36.49;101586.53;5061518;28;20063;-49
2022/05/19 00:05:28;;;;;;;0.85;0.25;;;;;;;25.00;36.43;101596.16;5069169;28;20036;-46
2022/05/19 00:07:53;;;;;;;0.70;0.20;;;;;;;24.99;36.81;101594.50;5062926;28;20569;-47
2022/05/19 00:10:19;;;;;;;1.17;0.20;;;;;;;24.99;36.78;101589.19;5061525;28;20526;-46
2022/05/19 00:12:45;;;;;;;1.65;0.30;;;;;;;25.00;36.79;101596.16;5079397;28;20029;-42
2022/05/19 00:15:12;;;;;;;1.50;0.30;;;;;;;25.00;36.87;101591.63;5065581;28;20079;-46
2022/05/19 00:17:39;;;;;;;1.38;0.20;;;;;;;24.98;36.92;101588.38;5064801;28;20087;-46
2022/05/19 00:20:05;;;;;;;0.73;0.25;;;;;;;24.99;36.88;101590.00;5064600;28;20025;-47
2022/05/19 00:22:31;;;;;;;0.60;0.20;;;;;;;24.99;36.99;101594.50;5066982;28;20035;-48
2022/05/19 00:24:56;;;;;;;1.05;0.25;;;;;;;24.98;37.05;101588.38;5052947;28;20029;-45
2022/05/19 00:27:22;;;;;;;1.00;0.30;;;;;;;24.98;36.64;101588.38;5053035;28;20361;-45
2022/05/19 00:29:47;;;;;;;0.73;0.20;;;;;;;24.98;36.87;101587.56;5051096;28;20400;-45
2022/05/19 00:32:13;;;;;;;1.20;0.30;;;;;;;24.98;36.60;101590.22;5064740;28;20419;-43
2022/05/19 00:34:38;;;;;;;1.20;0.30;;;;;;;24.97;36.60;101585.91;5054906;28;20468;-44
2022/05/19 00:37:04;;;;;;;2.80;0.40;;;;;;;24.95;36.44;101586.09;5059951;28;20469;-45
2022/05/19 00:39:34;;;;;;;1.52;0.30;;;;;;;24.95;36.31;101591.44;5061153;28;20033;-49
2022/05/19 00:44:43;;;;;;;3.10;0.28;;;;;;;24.94;36.30;101581.78;5058996;28;20063;-44
2022/05/19 00:47:16;;;;;;;0.43;0.20;;;;;;;24.95;36.49;101582.59;5062844;28;20028;-50
2022/05/19 00:49:44;;;;;;;0.65;0.30;;;;;;;24.96;36.52;101581.63;5060196;28;20032;-45
2022/05/19 00:52:11;;;;;;;3.22;0.30;;;;;;;24.96;36.40;101589.59;5059620;28;20047;-44
2022/05/19 00:54:41;;;;;;;0.88;0.30;;;;;;;24.96;36.67;101594.94;5057533;28;20028;-49
2022/05/19 00:57:14;;;;;;;1.23;0.20;;;;;;;24.96;36.43;101578.94;5065099;28;20037;-46
2022/05/19 00:59:56;;;;;;;0.68;0.28;;;;;;;24.95;36.38;101577.28;5055537;28;20040;-51
2022/05/19 01:02:25;;;;;;;0.68;0.30;;;;;;;24.95;36.46;101582.59;5063651;28;20369;-48
2022/05/19 01:05:02;;;;;;;0.60;0.15;;;;;;;24.95;36.68;101582.59;5059323;28;20037;-45
2022/05/19 01:07:43;;;;;;;1.48;0.25;;;;;;;24.95;36.75;101590.59;5054041;28;20187;-44
2022/05/19 01:10:09;;;;;;;0.60;0.20;;;;;;;24.96;36.90;101594.94;5068488;28;20051;-44
2022/05/19 01:12:36;;;;;;;1.35;0.28;;;;;;;24.96;36.73;101587.75;5061412;28;20801;-48
2022/05/19 01:15:04;;;;;;;0.50;0.25;;;;;;;24.97;37.07;101583.25;5063727;28;20028;-45
2022/05/19 01:17:31;;;;;;;0.60;0.20;;;;;;;24.96;36.83;101585.09;5062849;28;20497;-45
2022/05/19 01:20:00;;;;;;;0.60;0.25;;;;;;;24.96;36.79;101584.28;5063473;28;20041;-45
2022/05/19 01:23:02;;;;;;;1.10;0.30;;;;;;;24.93;36.83;101584.66;5061853;28;20043;-48
2022/05/19 01:25:37;;;;;;;0.98;0.20;;;;;;;24.92;36.79;101583.84;5054564;28;20055;-45
2022/05/19 01:28:02;;;;;;;0.63;0.20;;;;;;;24.94;36.71;101580.97;5064385;28;20047;-45
2022/05/19 01:30:28;;;;;;;0.80;0.38;;;;;;;24.94;36.76;101580.97;5064101;28;20428;-45
2022/05/19 01:32:54;;;;;;;1.45;0.25;;;;;;;24.93;36.73;101580.16;5065805;28;20032;-46
2022/05/19 01:35:21;;;;;;;0.63;0.20;;;;;;;24.93;36.61;101580.16;5061378;28;20070;-49
2022/05/19 01:37:47;;;;;;;0.85;0.30;;;;;;;24.94;36.54;101586.31;5048362;28;20032;-49
2022/05/19 01:40:27;;;;;;;0.68;0.20;;;;;;;24.93;36.70;101587.34;5065398;28;20040;-50
2022/05/19 01:43:24;;;;;;;1.77;0.20;;;;;;;24.89;36.20;101583.44;5053510;28;20496;-43
2022/05/19 01:46:14;;;;;;;0.57;0.30;;;;;;;24.87;36.37;101582.84;5064037;28;20051;-43
2022/05/19 01:48:48;;;;;;;3.13;0.20;;;;;;;24.87;36.13;101580.19;5058761;28;20075;-47
2022/05/19 01:51:21;;;;;;;0.82;0.30;;;;;;;24.87;36.21;101581.00;5050535;28;20370;-44
2022/05/19 01:54:07;;;;;;;0.95;0.30;;;;;;;24.85;36.30;101576.91;5059260;28;20047;-46
2022/05/19 01:56:43;;;;;;;0.50;0.20;;;;;;;24.85;36.13;101583.06;5060034;28;20036;-45
2022/05/19 01:59:16;;;;;;;2.00;0.28;;;;;;;24.84;36.22;101581.41;5057157;28;20512;-47
2022/05/19 02:01:52;;;;;;;0.52;0.20;;;;;;;24.84;36.33;101576.09;5066202;28;20074;-45
2022/05/19 02:04:30;;;;;;;2.35;0.30;;;;;;;24.83;36.18;101578.97;5048851;28;20058;-44
2022/05/19 02:07:01;;;;;;;1.13;0.45;;;;;;;24.83;36.08;101568.31;5054668;28;20028;-47
2022/05/19 02:09:37;;;;;;;1.20;0.20;;;;;;;24.82;35.97;101567.47;5065203;28;20041;-43
2022/05/19 02:12:05;;;;;;;3.20;0.30;;;;;;;24.81;36.07;101572.00;5060738;28;20036;-43
2022/05/19 02:14:35;;;;;;;0.70;0.20;;;;;;;24.83;36.15;101565.63;5064867;28;20040;-43
2022/05/19 02:17:04;;;;;;;0.63;0.20;;;;;;;24.82;36.13;101567.47;5064805;28;20033;-52
2022/05/19 02:19:36;;;;;;;0.75;0.20;;;;;;;24.83;36.37;101557.66;5067086;28;20345;-43
2022/05/19 02:22:04;;;;;;;0.50;0.20;;;;;;;24.85;36.58;101560.91;5058713;28;20021;-45
2022/05/19 02:24:33;;;;;;;0.70;0.20;;;;;;;24.85;36.85;101551.06;5059985;28;22117;-44
2022/05/19 02:27:17;;;;;;;0.40;0.20;;;;;;;24.87;36.70;101556.19;5059992;28;20180;-45
2022/05/19 02:29:43;;;;;;;1.40;0.20;;;;;;;24.86;36.68;101552.72;5061167;28;20563;-47
2022/05/19 02:32:09;;;;;;;1.17;0.20;;;;;;;24.88;36.60;101557.81;5059691;28;20038;-43
2022/05/19 02:34:34;;;;;;;1.40;0.20;;;;;;;24.88;36.65;101560.50;5066759;28;20349;-48
2022/05/19 02:37:00;;;;;;;0.55;0.20;;;;;;;24.89;36.61;101559.47;5064851;28;20021;-48
2022/05/19 02:39:25;;;;;;;0.73;0.40;;;;;;;24.89;36.40;101557.63;5065468;28;20071;-45
2022/05/19 02:41:51;;;;;;;0.50;0.20;;;;;;;24.89;36.81;101557.63;5053644;28;20381;-49
2022/05/19 02:44:16;;;;;;;0.88;0.20;;;;;;;24.89;36.51;101565.63;5064662;28;20061;-45
2022/05/19 02:46:41;;;;;;;0.60;0.20;;;;;;;24.88;36.63;101563.16;5061822;28;20028;-43
2022/05/19 02:49:07;;;;;;;1.02;0.20;;;;;;;24.87;36.59;101565.00;5064967;28;20055;-47
2022/05/19 02:51:32;;;;;;;2.40;0.30;;;;;;;24.86;36.48;101574.03;5060463;28;20028;-45
2022/05/19 02:53:58;;;;;;;0.52;0.20;;;;;;;24.86;36.66;101573.22;5057882;28;20087;-47
2022/05/19 02:56:24;;;;;;;1.15;0.20;;;;;;;24.86;36.35;101575.88;5050006;28;20029;-45
2022/05/19 02:58:52;;;;;;;0.70;0.20;;;;;;;24.84;36.66;101575.28;5056084;28;20043;-43
2022/05/19 03:01:17;;;;;;;0.90;0.20;;;;;;;24.84;36.58;101575.28;5059085;28;20404;-46
2022/05/19 03:03:43;;;;;;;0.60;0.20;;;;;;;24.83;36.59;101579.78;5064790;28;20028;-52
2022/05/19 03:06:08;;;;;;;1.23;0.30;;;;;;;24.81;36.39;101577.34;5065602;28;20103;-47
2022/05/19 03:08:34;;;;;;;0.70;0.20;;;;;;;24.79;36.44;101581.22;5063127;28;20035;-46
2022/05/19 03:10:59;;;;;;;1.38;0.20;;;;;;;24.79;36.57;101589.22;5070592;28;20131;-49
2022/05/19 03:13:25;;;;;;;1.05;0.20;;;;;;;24.77;36.38;101584.09;5068638;28;20031;-44
2022/05/19 03:15:51;;;;;;;1.70;0.30;;;;;;;24.78;36.45;101590.25;5059102;28;20151;-44
2022/05/19 03:18:16;;;;;;;2.35;0.20;;;;;;;24.77;36.40;101589.44;5062450;28;20773;-45
2022/05/19 03:20:42;;;;;;;0.93;0.35;;;;;;;24.77;36.11;101585.94;5068908;28;20036;-48
2022/05/19 03:23:08;;;;;;;1.15;0.38;;;;;;;24.75;36.57;101583.50;5068974;28;20115;-46
2022/05/19 03:25:34;;;;;;;0.95;0.25;;;;;;;24.75;36.57;101596.81;5062432;28;20119;-46
2022/05/19 03:27:59;;;;;;;1.77;0.20;;;;;;;24.75;36.35;101591.50;5068220;28;20211;-46
2022/05/19 03:30:25;;;;;;;1.92;0.30;;;;;;;24.76;36.53;101594.97;5062599;28;20058;-50
2022/05/19 03:32:51;;;;;;;0.80;0.20;;;;;;;24.75;36.76;101596.81;5068290;28;20392;-48
2022/05/19 03:35:17;;;;;;;2.67;0.30;;;;;;;24.77;36.51;101597.44;5061512;28;20040;-49
2022/05/19 03:37:44;;;;;;;1.13;0.30;;;;;;;24.77;36.51;101599.28;5055085;28;20509;-44
2022/05/19 03:40:12;;;;;;;0.95;0.25;;;;;;;24.77;36.38;101596.63;5059221;28;20037;-44
2022/05/19 03:42:37;;;;;;;0.85;0.32;;;;;;;24.76;36.77;101593.13;5067688;28;20043;-42
2022/05/19 03:45:04;;;;;;;1.10;0.40;;;;;;;24.77;36.56;101602.75;5064465;28;20094;-44
2022/05/19 03:47:30;;;;;;;0.88;0.20;;;;;;;24.76;36.47;101600.31;5064068;28;20078;-48
2022/05/19 03:49:56;;;;;;;1.58;0.20;;;;;;;24.76;36.41;101605.63;5052271;28;20155;-48
2022/05/19 03:52:21;;;;;;;0.80;0.20;;;;;;;24.75;36.48;101606.66;5060187;28;20553;-43
2022/05/19 03:54:47;;;;;;;2.08;0.30;;;;;;;24.73;36.71;101603.38;5058475;28;20033;-45
2022/05/19 03:57:13;;;;;;;1.67;0.20;;;;;;;24.73;36.58;101612.22;5066260;28;20612;-42
2022/05/19 03:59:39;;;;;;;1.00;0.30;;;;;;;24.74;36.70;101608.50;5067752;28;20031;-43
2022/05/19 04:02:05;;;;;;;2.85;0.30;;;;;;;24.74;36.70;101611.19;5069436;28;20024;-44
2022/05/19 04:04:31;;;;;;;1.85;0.25;;;;;;;24.75;36.59;101607.47;5060525;28;20611;-49
2022/05/19 04:06:57;;;;;;;1.25;0.30;;;;;;;24.75;36.46;101604.81;5064489;28;20040;-45
2022/05/19 04:09:22;;;;;;;0.90;0.30;;;;;;;24.75;36.79;101604.00;5061584;28;20039;-46
2022/05/19 04:11:49;;;;;;;1.08;0.30;;;;;;;24.76;36.61;101608.31;5054223;28;20104;-42
2022/05/19 04:14:15;;;;;;;0.60;0.30;;;;;;;24.76;36.64;101613.63;5059033;28;20068;-44
2022/05/19 04:16:40;;;;;;;1.15;0.20;;;;;;;24.77;36.74;101616.09;5056430;28;20185;-48
2022/05/19 04:19:06;;;;;;;3.72;0.40;;;;;;;24.77;36.91;101608.09;5068181;28;20029;-45
2022/05/19 04:21:32;;;;;;;2.25;0.50;;;;;;;24.76;36.97;101617.13;5066506;28;20525;-47
2022/05/19 04:23:57;;;;;;;2.60;0.20;;;;;;;24.76;37.00;101617.13;5068497;28;20039;-46
2022/05/19 04:26:23;;;;;;;2.95;0.50;;;;;;;24.76;36.87;101617.13;5053539;28;20025;-44
2022/05/19 04:28:49;;;;;;;1.10;0.30;;;;;;;24.76;36.90;101619.78;5063450;28;20025;-48
2022/05/19 04:31:14;;;;;;;1.88;0.52;;;;;;;24.76;36.94;101617.13;5062103;28;20190;-52
2022/05/19 04:33:40;;;;;;;2.53;0.40;;;;;;;24.79;37.62;101618.53;5059605;28;20029;-45
2022/05/19 04:36:06;;;;;;;7.47;1.08;;;;;;;24.87;39.01;101614.84;5058008;28;20826;-45
2022/05/19 04:38:31;;;;;;;6.55;3.88;;;;;;;24.94;41.01;101618.28;5065888;28;20031;-43
2022/05/19 04:41:01;;;;;;;5.68;1.20;;;;;;;24.93;40.42;101619.31;5062289;28;20024;-43
2022/05/19 04:43:27;;;;;;;5.72;0.70;;;;;;;24.91;39.59;101626.72;5058331;28;20033;-41
2022/05/19 04:45:53;;;;;;;7.03;0.52;;;;;;;24.89;39.19;101626.09;5052601;28;20102;-45
2022/05/19 04:48:20;;;;;;;3.30;0.88;;;;;;;24.87;38.68;101622.81;5063137;28;20033;-43
2022/05/19 04:50:49;;;;;;;4.47;0.40;;;;;;;24.86;38.25;101632.66;5059853;28;20132;-45
2022/05/19 04:53:15;;;;;;;4.45;0.52;;;;;;;24.85;38.00;101635.53;5063383;28;20029;-46
2022/05/19 04:55:40;;;;;;;3.95;0.40;;;;;;;24.84;37.50;101644.56;5050847;28;20778;-46
2022/05/19 04:58:06;;;;;;;2.58;0.50;;;;;;;24.84;37.38;101645.38;5054967;28;20033;-44
2022/05/19 05:00:32;;;;;;;4.10;0.45;;;;;;;24.83;37.34;101645.59;5055482;28;20043;-45
2022/05/19 05:02:57;;;;;;;2.88;0.30;;;;;;;24.83;37.14;101650.94;5063716;28;20044;-46
2022/05/19 05:05:23;;;;;;;4.70;0.60;;;;;;;24.80;36.75;101650.31;5046377;28;20548;-46
2022/05/19 05:07:49;;;;;;;4.13;0.65;;;;;;;24.80;36.65;101649.50;5056719;28;20524;-43
2022/05/19 05:10:14;;;;;;;2.17;0.57;;;;;;;24.78;36.62;101648.88;5070668;28;20417;-46
2022/05/19 05:12:40;;;;;;;2.38;0.50;;;;;;;24.76;36.47;101651.75;5058275;28;20021;-46
2022/05/19 05:15:07;;;;;;;2.58;0.50;;;;;;;24.75;36.50;101652.78;5049432;28;20078;-48
2022/05/19 05:17:33;;;;;;;10.07;0.68;;;;;;;24.75;35.97;101658.13;5062824;28;20399;-43
2022/05/19 05:19:58;;;;;;;2.45;0.40;;;;;;;24.74;36.10;101659.16;5049598;28;20025;-42
2022/05/19 05:22:24;;;;;;;2.63;0.35;;;;;;;24.74;36.11;101655.66;5060955;28;20549;-43
2022/05/19 05:24:49;;;;;;;3.47;0.40;;;;;;;24.74;35.93;101664.47;5069311;28;20032;-47
2022/05/19 05:27:15;;;;;;;2.95;0.55;;;;;;;24.74;36.05;101666.31;5067666;28;20111;-47
2022/05/19 05:29:40;;;;;;;2.42;0.30;;;;;;;24.73;36.19;101664.69;5068189;28;20043;-46
2022/05/19 05:32:06;;;;;;;1.92;0.50;;;;;;;24.71;36.27;101664.88;5055927;28;20071;-43
2022/05/19 05:34:32;;;;;;;1.45;0.50;;;;;;;24.72;36.22;101665.72;5055979;28;20155;-45
2022/05/19 05:36:58;;;;;;;3.03;0.55;;;;;;;24.72;36.09;101669.19;5059173;28;20031;-45
2022/05/19 05:39:23;;;;;;;6.72;0.65;;;;;;;24.73;36.11;101670.00;5063971;28;20021;-43
2022/05/19 05:41:49;;;;;;;2.38;0.30;;;;;;;24.73;36.05;101675.34;5069794;28;20051;-44
2022/05/19 05:44:14;;;;;;;0.80;0.30;;;;;;;24.74;35.98;101677.81;5064313;28;20130;-49
2022/05/19 05:46:40;;;;;;;2.60;0.30;;;;;;;24.75;35.97;101683.94;5061745;28;20020;-45
2022/05/19 05:49:06;;;;;;;0.77;0.30;;;;;;;24.76;35.81;101686.41;5060346;28;20082;-44
2022/05/19 05:51:31;;;;;;;1.77;0.52;;;;;;;24.76;35.86;101682.91;5060083;28;20413;-46
2022/05/19 05:53:57;;;;;;;2.53;0.45;;;;;;;24.80;36.40;101679.63;5067747;28;20457;-45
2022/05/19 05:56:23;;;;;;;3.35;0.40;;;;;;;24.85;36.59;101683.53;5056590;28;20388;-44
2022/05/19 05:58:49;;;;;;;3.92;0.85;;;;;;;24.88;35.49;101688.44;5069991;28;20032;-46
2022/05/19 06:01:18;;;;;;;0.68;0.30;;;;;;;24.76;34.98;101690.91;5058214;28;20342;-44
2022/05/19 06:03:45;;;;;;;3.58;0.40;;;;;;;24.71;34.58;101683.53;5048923;28;20029;-45
2022/05/19 06:06:11;;;;;;;2.78;0.50;;;;;;;24.71;34.64;101685.38;5051265;28;20452;-47
2022/05/19 06:08:36;;;;;;;3.70;0.40;;;;;;;24.71;34.72;101686.22;5048307;28;20036;-48
2022/05/19 06:11:02;;;;;;;1.95;0.40;;;;;;;24.73;35.47;101694.00;5048194;28;20357;-46
2022/05/19 06:13:28;;;;;;;3.03;0.40;;;;;;;24.74;35.53;101685.78;5067394;28;20020;-44
2022/05/19 06:15:54;;;;;;;1.10;0.30;;;;;;;24.74;35.65;101683.13;5072401;28;20512;-43
2022/05/19 06:18:20;;;;;;;2.40;0.30;;;;;;;24.75;35.70;101684.78;5050589;28;20060;-44
2022/05/19 06:20:46;;;;;;;0.93;0.30;;;;;;;24.76;36.11;101691.75;5063439;28;20522;-43
2022/05/19 06:23:12;;;;;;;2.80;0.50;;;;;;;24.75;35.99;101687.44;5059320;28;20422;-46
2022/05/19 06:25:38;;;;;;;5.32;0.80;;;;;;;24.76;36.43;101693.59;5067045;28;20033;-49
2022/05/19 06:28:04;;;;;;;2.78;0.60;;;;;;;24.76;36.60;101690.91;5057657;28;20058;-49
2022/05/19 06:30:31;;;;;;;5.10;0.50;;;;;;;24.77;37.84;101688.03;5058898;28;20046;-43
2022/05/19 06:32:57;;;;;;;6.97;1.23;;;;;;;24.77;38.22;101692.56;5056218;28;20203;-42
2022/05/19 06:35:25;;;;;;;8.90;1.00;;;;;;;24.78;39.16;101695.00;5063189;28;20436;-43
2022/05/19 06:37:51;;;;;;;4.97;0.80;;;;;;;24.78;39.31;101700.34;5049079;28;20127;-46
2022/05/19 06:40:17;;;;;;;4.13;0.80;;;;;;;24.79;38.99;101691.31;5066370;28;20522;-45
2022/05/19 06:42:45;;;;;;;1.27;0.60;;;;;;;24.77;38.39;101693.38;5057480;28;20029;-46
2022/05/19 06:45:13;;;;;;;4.20;0.70;;;;;;;24.77;38.20;101688.03;5068776;28;20092;-49
2022/05/19 06:47:38;;;;;;;2.33;0.70;;;;;;;24.77;38.22;101695.22;5057994;28;20163;-45
2022/05/19 06:50:05;;;;;;;8.80;0.95;;;;;;;24.77;38.06;101692.56;5056409;28;20067;-43
2022/05/19 06:52:33;;;;;;;4.30;0.55;;;;;;;24.75;37.75;101695.44;5057055;28;20032;-43
2022/05/19 06:55:02;;;;;;;4.60;0.43;;;;;;;24.75;37.03;101698.09;5061103;28;20495;-45
2022/05/19 06:57:30;;;;;;;2.60;0.60;;;;;;;24.76;36.83;101696.25;5062715;28;20505;-45
2022/05/19 06:59:55;;;;;;;3.28;0.60;;;;;;;24.75;36.50;101694.59;5056587;28;20032;-44
2022/05/19 07:02:23;;;;;;;3.50;0.55;;;;;;;24.74;36.03;101703.63;5068551;28;20054;-45
2022/05/19 07:04:49;;;;;;;5.22;0.70;;;;;;;24.75;36.22;101699.94;5048830;28;20087;-47
2022/05/19 07:07:14;;;;;;;1.02;0.30;;;;;;;24.75;36.27;101698.09;5048057;28;20029;-43
2022/05/19 07:09:41;;;;;;;2.55;0.50;;;;;;;24.77;36.04;101695.22;5050117;28;20029;-43
2022/05/19 07:12:09;;;;;;;2.55;0.50;;;;;;;24.75;36.52;101689.28;5062946;28;20043;-47
2022/05/19 07:14:35;;;;;;;3.05;0.40;;;;;;;24.75;36.41;101698.09;5046249;28;20036;-46
2022/05/19 07:17:01;;;;;;;2.35;0.40;;;;;;;24.75;36.45;101692.75;5051006;28;20044;-42
2022/05/19 07:22:19;;;;;;;2.65;0.35;;;;;;;24.73;36.25;101692.16;5047911;28;20607;-43
2022/05/19 07:24:44;;;;;;;3.30;0.30;;;;;;;24.74;36.21;101691.13;5047668;28;20025;-45
2022/05/19 07:27:10;;;;;;;2.75;0.40;;;;;;;24.74;36.29;101688.47;5047568;28;20063;-42
2022/05/19 07:29:35;;;;;;;2.33;0.40;;;;;;;24.75;36.47;101694.59;5046889;28;20041;-43
2022/05/19 07:32:01;;;;;;;2.50;0.47;;;;;;;24.75;36.33;101690.09;5053121;28;20036;-43
2022/05/19 07:34:29;;;;;;;2.33;0.40;;;;;;;24.77;36.45;101692.56;5067237;28;20035;-44
2022/05/19 07:36:56;;;;;;;2.67;0.30;;;;;;;24.77;36.59;101696.03;5049209;28;20029;-42
2022/05/19 07:39:22;;;;;;;0.65;0.30;;;;;;;24.77;36.35;101689.88;5047482;28;20520;-43
2022/05/19 07:41:50;;;;;;;2.47;0.43;;;;;;;24.78;36.76;101695.00;5063982;28;20060;-44
2022/05/19 07:44:15;;;;;;;1.00;0.30;;;;;;;24.77;36.58;101698.72;5061145;28;20044;-46
2022/05/19 07:46:42;;;;;;;1.92;0.50;;;;;;;24.77;36.55;101693.38;5059954;28;20025;-43
2022/05/19 07:49:07;;;;;;;3.33;0.30;;;;;;;24.76;36.48;101694.41;5047198;28;20033;-44
2022/05/19 07:51:36;;;;;;;0.80;0.40;;;;;;;24.76;36.38;101688.25;5057173;28;20571;-44
2022/05/19 07:54:30;;;;;;;1.02;0.30;;;;;;;24.74;36.04;101688.47;5047299;28;20044;-42
2022/05/19 07:56:57;;;;;;;0.57;0.30;;;;;;;24.74;36.21;101683.13;5046844;28;20045;-44
2022/05/19 07:59:24;;;;;;;2.22;0.45;;;;;;;24.75;36.07;101684.78;5050862;28;20024;-41
2022/05/19 08:01:51;;;;;;;0.80;0.28;;;;;;;24.75;36.11;101684.78;5050245;28;20423;-44
2022/05/19 08:04:17;;;;;;;1.50;0.30;;;;;;;24.75;36.07;101684.78;5051748;28;20495;-42
2022/05/19 08:06:43;;;;;;;1.85;0.50;;;;;;;24.75;36.20;101690.09;5051717;28;20025;-44
2022/05/19 08:11:54;;;;;;;0.70;0.30;;;;;;;24.72;35.95;101689.69;5063932;28;20082;-44
2022/05/19 08:17:10;;;;;;;3.33;0.40;;;;;;;24.73;35.75;101697.47;5051512;28;20094;-43
2022/05/19 08:19:39;;;;;;;1.35;0.38;;;;;;;24.73;35.90;101696.66;5050186;28;20405;-45
2022/05/19 08:22:06;;;;;;;2.90;0.40;;;;;;;24.73;35.91;101697.47;5058466;28;20425;-42
2022/05/19 08:24:32;;;;;;;1.65;0.50;;;;;;;24.73;35.69;101699.31;5050136;28;20025;-43
2022/05/19 08:26:58;;;;;;;3.92;0.30;;;;;;;24.72;35.43;101697.69;5049952;28;20032;-47
2022/05/19 08:29:24;;;;;;;0.95;0.30;;;;;;;24.72;35.44;101706.50;5050755;28;20397;-43
2022/05/19 08:31:50;;;;;;;1.15;0.30;;;;;;;24.71;35.27;101694.19;5050054;28;20028;-45
2022/05/19 08:34:15;;;;;;;2.53;0.40;;;;;;;24.71;35.46;101693.38;5049829;28;20107;-44
2022/05/19 08:36:43;;;;;;;0.75;0.45;;;;;;;24.71;34.72;101698.72;5055752;28;20058;-45
2022/05/19 08:39:09;;;;;;;0.75;0.30;;;;;;;24.70;34.68;101694.41;5054349;28;20346;-43
2022/05/19 08:41:55;;;;;;;0.70;0.30;;;;;;;24.68;34.91;101701.78;5049645;28;20025;-41
2022/05/19 08:44:48;;;;;;;0.73;0.20;;;;;;;24.66;34.94;101691.34;5049764;28;20558;-45
2022/05/19 08:47:18;;;;;;;1.95;0.30;;;;;;;24.68;35.29;101697.28;5065223;28;20032;-43
2022/05/19 08:49:48;;;;;;;1.48;0.30;;;;;;;24.67;35.24;101690.31;5065042;28;20067;-42
2022/05/19 08:52:20;;;;;;;1.00;0.30;;;;;;;24.68;35.29;101689.28;5053957;28;20131;-41
2022/05/19 08:54:49;;;;;;;1.20;0.30;;;;;;;24.70;35.36;101684.56;5048212;28;20064;-43
2022/05/19 08:57:29;;;;;;;1.85;0.30;;;;;;;24.70;35.22;101686.41;5049792;28;20028;-44
2022/05/19 09:00:24;;;;;;;2.33;0.30;;;;;;;24.69;35.21;101680.28;5049462;28;20035;-44
2022/05/19 09:02:56;;;;;;;0.50;0.20;;;;;;;24.69;35.22;101682.94;5031692;28;20127;-46
2022/05/19 09:05:34;;;;;;;1.52;0.32;;;;;;;24.69;34.96;101680.28;5049346;28;20036;-45
2022/05/19 09:08:19;;;;;;;1.00;0.30;;;;;;;24.70;34.67;101676.56;5065920;28;20183;-46
2022/05/19 09:10:57;;;;;;;1.52;0.20;;;;;;;24.71;34.56;101686.22;5049288;28;20041;-44
2022/05/19 09:13:38;;;;;;;1.58;0.30;;;;;;;24.72;34.23;101679.03;5049499;28;20028;-43
2022/05/19 09:16:15;;;;;;;1.10;0.20;;;;;;;24.72;34.19;101679.84;5049868;28;20036;-46
2022/05/19 09:19:04;;;;;;;0.95;0.30;;;;;;;24.72;34.17;101677.19;5055255;28;20033;-46
2022/05/19 09:21:30;;;;;;;0.80;0.20;;;;;;;24.74;34.40;101676.97;5069611;28;20097;-42
2022/05/19 09:23:56;;;;;;;0.45;0.20;;;;;;;24.74;34.01;101677.81;5069253;28;20024;-44
2022/05/19 09:26:54;;;;;;;2.97;0.30;;;;;;;24.72;33.58;101679.84;5069237;28;20427;-45
2022/05/19 09:29:34;;;;;;;1.85;0.40;;;;;;;24.71;33.29;101672.88;5068965;28;20436;-43
2022/05/19 09:32:06;;;;;;;0.88;0.30;;;;;;;24.70;33.22;101673.91;5068844;28;20025;-42
2022/05/19 09:34:34;;;;;;;1.05;0.20;;;;;;;24.70;32.84;101665.91;5069081;28;20507;-43
2022/05/19 09:37:14;;;;;;;0.40;0.10;;;;;;;24.69;32.68;101674.94;5068996;28;20055;-44
2022/05/19 09:39:52;;;;;;;1.48;0.30;;;;;;;24.69;32.13;101663.47;5064323;28;20028;-46
2022/05/19 09:42:29;;;;;;;3.25;0.30;;;;;;;24.69;32.42;101679.44;5054873;28;20055;-42
2022/05/19 09:44:57;;;;;;;1.75;0.25;;;;;;;24.70;31.97;101670.44;5048679;28;20549;-43
2022/05/19 09:47:31;;;;;;;1.10;0.22;;;;;;;24.69;32.06;101668.78;5063104;28;20402;-43
2022/05/19 09:50:17;;;;;;;0.77;0.30;;;;;;;24.68;32.14;101670.63;5067592;28;20399;-43
2022/05/19 09:52:44;;;;;;;0.95;0.20;;;;;;;24.68;32.84;101675.97;5053161;28;20488;-41
2022/05/19 09:55:12;;;;;;;1.85;0.30;;;;;;;24.69;32.96;101674.13;5067505;28;20047;-44
2022/05/19 09:57:49;;;;;;;1.25;0.20;;;;;;;24.67;32.84;101671.66;5068736;28;20361;-43
2022/05/19 10:00:32;;;;;;;1.67;0.20;;;;;;;24.66;32.32;101666.53;5068927;28;20086;-45
2022/05/19 10:03:00;;;;;;;0.40;0.20;;;;;;;24.68;32.43;101662.63;5051622;28;20041;-42
2022/05/19 10:05:47;;;;;;;1.23;0.20;;;;;;;24.67;32.93;101660.19;5048563;28;20025;-41
2022/05/19 10:08:18;;;;;;;0.32;0.20;;;;;;;24.67;32.75;101661.00;5048918;28;20408;-42
2022/05/19 10:10:48;;;;;;;1.90;0.20;;;;;;;24.68;32.90;101659.16;5050139;28;20037;-42
2022/05/19 10:13:16;;;;;;;0.70;0.20;;;;;;;24.68;32.87;101656.50;5048750;28;20046;-42
2022/05/19 10:16:07;;;;;;;0.30;0.20;;;;;;;24.66;32.85;101648.72;5048603;28;20024;-42
2022/05/19 10:18:49;;;;;;;0.77;0.30;;;;;;;24.67;32.73;101650.34;5049050;28;20099;-41
2022/05/19 10:21:27;;;;;;;0.40;0.20;;;;;;;24.67;32.69;101645.00;5050866;28;20461;-45
2022/05/19 10:24:16;;;;;;;0.73;0.43;;;;;;;24.67;33.07;101650.34;5049307;28;20037;-47
2022/05/19 10:33:06;;;;;;;0.75;0.20;;;;;;;24.68;32.63;101633.34;5049082;28;20048;-42
2022/05/19 10:35:59;;;;;;;1.15;0.30;;;;;;;24.68;32.20;101633.34;5048026;28;20111;-42
2022/05/19 10:38:50;;;;;;;2.28;0.22;;;;;;;24.68;32.42;101628.00;5048193;28;20087;-43
2022/05/19 10:41:57;;;;;;;0.80;0.30;;;;;;;24.68;32.18;101630.66;5049104;28;20034;-43
2022/05/19 10:44:47;;;;;;;0.88;0.30;;;;;;;24.68;32.31;101630.66;5049257;28;20032;-42
2022/05/19 10:47:45;;;;;;;0.80;0.30;;;;;;;24.67;32.21;101629.03;5048034;28;20045;-42
2022/05/19 10:50:31;;;;;;;0.70;0.30;;;;;;;24.68;32.12;101625.34;5048002;28;20029;-43
2022/05/19 10:53:07;;;;;;;;;;;;;;;24.62;32.52;101623.50;5052236;28;20045;-44
2022/05/19 10:56:15;;;;;;;0.60;0.20;;;;;;;24.64;32.68;101628.63;5050068;28;20027;-42
2022/05/19 10:59:13;;;;;;;0.32;0.20;;;;;;;24.66;32.78;101626.56;5041836;28;20140;-46
2022/05/19 11:01:48;;;;;;;0.80;0.30;;;;;;;24.68;32.58;101629.84;5048015;28;20068;-44
2022/05/19 11:04:38;;;;;;;1.17;0.20;;;;;;;24.67;32.71;101626.38;5047589;28;20047;-43
2022/05/19 11:07:09;;;;;;;0.57;0.20;;;;;;;24.69;32.45;101620.81;5047658;28;20473;-44
2022/05/19 11:09:35;;;;;;;1.23;0.20;;;;;;;24.68;32.34;101620.00;5047880;28;20040;-43
2022/05/19 11:12:16;;;;;;;0.68;0.20;;;;;;;24.68;32.62;101620.00;5051629;28;20033;-41
2022/05/19 11:15:04;;;;;;;0.60;0.20;;;;;;;24.67;32.21;101618.38;5047830;28;20028;-42
2022/05/19 11:17:52;;;;;;;2.33;0.30;;;;;;;24.69;32.18;101618.97;5064500;28;20041;-46
2022/05/19 11:20:24;;;;;;;0.93;0.20;;;;;;;24.71;32.56;101618.78;5057288;28;20049;-44
2022/05/19 11:23:22;;;;;;;0.90;0.20;;;;;;;24.70;32.33;101617.94;5047701;28;20072;-43
2022/05/19 11:28:52;;;;;;;1.90;0.20;;;;;;;24.71;31.97;101608.09;5047275;28;20464;-43
2022/05/19 11:31:43;;;;;;;0.77;0.20;;;;;;;24.72;31.85;101609.75;5051065;28;20063;-43
2022/05/19 11:34:32;;;;;;;0.55;0.20;;;;;;;24.70;31.71;101604.63;5050951;28;20036;-42
2022/05/19 11:37:14;;;;;;;1.67;0.20;;;;;;;24.72;31.95;101615.06;5058728;28;20784;-45
2022/05/19 11:39:49;;;;;;;0.40;0.20;;;;;;;24.71;32.08;101606.25;5061455;28;20040;-44
2022/05/19 11:42:49;;;;;;;1.98;0.30;;;;;;;24.70;31.54;101601.97;5064225;28;20040;-42
2022/05/19 11:45:37;;;;;;;1.20;0.20;;;;;;;24.71;31.64;101608.09;5052746;28;20563;-44
2022/05/19 11:56:45;;;;;;;2.58;0.25;;;;;;;24.69;31.00;101595.00;5069821;28;20047;-45
2022/05/19 11:59:11;;;;;;;1.80;0.30;;;;;;;24.71;30.99;101600.13;5066296;28;20435;-41
2022/05/19 12:01:46;;;;;;;1.65;0.20;;;;;;;24.70;31.27;101593.97;5049458;28;20032;-44
2022/05/19 12:04:28;;;;;;;1.35;0.30;;;;;;;24.68;30.45;101596.03;5056192;28;20116;-44
2022/05/19 12:07:22;;;;;;;0.68;0.20;;;;;;;24.66;30.71;101600.75;5050780;28;20044;-41
2022/05/19 12:09:53;;;;;;;2.83;0.65;;;;;;;24.66;30.41;101592.75;5058267;28;20039;-43